sensor_id;sensor_type;location;lat;lon;timestamp;P1;durP1;ratioP1;P2;durP2;ratioP2
69594;SDS011;56800;52.142;5.364;2023-07-16T00:00:37;9.57;;;2.35;;
69594;SDS011;56800;52.142;5.364;2023-07-16T00:03:03;9.25;;;2.25;;
69594;SDS011;56800;52.142;5.364;2023-07-16T00:05:30;8.73;;;2.37;;
69594;SDS011;56800;52.142;5.364;2023-07-16T00:07:57;9.43;;;2.40;;
69594;SDS011;56800;52.142;5.364;2023-07-16T00:10:24;7.50;;;2.33;;
69594;SDS011;56800;52.142;5.364;2023-07-16T00:12:51;12.25;;;2.72;;
69594;SDS011;56800;52.142;5.364;2023-07-16T00:15:17;7.35;;;2.90;;
69594;SDS011;56800;52.142;5.364;2023-07-16T00:17:44;9.77;;;2.23;;
69594;SDS011;56800;52.142;5.364;2023-07-16T00:20:11;11.38;;;3.20;;
69594;SDS011;56800;52.142;5.364;2023-07-16T00:22:38;15.68;;;2.53;;
69594;SDS011;56800;52.142;5.364;2023-07-16T00:25:06;11.82;;;2.15;;
69594;SDS011;56800;52.142;5.364;2023-07-16T00:27:33;11.95;;;2.70;;
69594;SDS011;56800;52.142;5.364;2023-07-16T00:29:59;12.53;;;2.80;;
69594;SDS011;56800;52.142;5.364;2023-07-16T00:32:26;8.45;;;2.60;;
69594;SDS011;56800;52.142;5.364;2023-07-16T00:34:53;10.30;;;3.00;;
69594;SDS011;56800;52.142;5.364;2023-07-16T00:37:20;15.70;;;3.17;;
69594;SDS011;56800;52.142;5.364;2023-07-16T00:39:47;11.30;;;3.22;;
69594;SDS011;56800;52.142;5.364;2023-07-16T00:42:14;11.53;;;3.00;;
69594;SDS011;56800;52.142;5.364;2023-07-16T00:44:40;7.45;;;3.00;;
69594;SDS011;56800;52.142;5.364;2023-07-16T00:47:08;9.30;;;2.63;;
69594;SDS011;56800;52.142;5.364;2023-07-16T00:49:35;10.07;;;2.95;;
69594;SDS011;56800;52.142;5.364;2023-07-16T00:52:03;9.23;;;2.85;;
69594;SDS011;56800;52.142;5.364;2023-07-16T00:54:32;11.67;;;2.47;;
69594;SDS011;56800;52.142;5.364;2023-07-16T00:56:59;8.15;;;3.08;;
69594;SDS011;56800;52.142;5.364;2023-07-16T00:59:26;10.80;;;2.90;;
69594;SDS011;56800;52.142;5.364;2023-07-16T01:01:53;12.55;;;3.00;;
69594;SDS011;56800;52.142;5.364;2023-07-16T01:04:20;10.65;;;3.35;;
69594;SDS011;56800;52.142;5.364;2023-07-16T01:06:48;11.93;;;2.90;;
69594;SDS011;56800;52.142;5.364;2023-07-16T01:09:19;8.63;;;3.08;;
69594;SDS011;56800;52.142;5.364;2023-07-16T01:11:47;10.25;;;3.08;;
69594;SDS011;56800;52.142;5.364;2023-07-16T01:14:16;9.95;;;3.63;;
69594;SDS011;56800;52.142;5.364;2023-07-16T01:16:44;9.30;;;3.08;;
69594;SDS011;56800;52.142;5.364;2023-07-16T01:19:11;12.17;;;2.87;;
69594;SDS011;56800;52.142;5.364;2023-07-16T01:21:49;13.75;;;3.17;;
69594;SDS011;56800;52.142;5.364;2023-07-16T01:30:15;10.70;;;2.72;;
69594;SDS011;56800;52.142;5.364;2023-07-16T01:32:45;6.77;;;2.70;;
69594;SDS011;56800;52.142;5.364;2023-07-16T01:35:13;12.68;;;3.08;;
69594;SDS011;56800;52.142;5.364;2023-07-16T01:37:41;9.13;;;3.17;;
69594;SDS011;56800;52.142;5.364;2023-07-16T01:40:08;13.60;;;3.70;;
69594;SDS011;56800;52.142;5.364;2023-07-16T01:42:35;14.10;;;3.85;;
69594;SDS011;56800;52.142;5.364;2023-07-16T01:45:02;10.00;;;2.80;;
69594;SDS011;56800;52.142;5.364;2023-07-16T01:47:50;11.35;;;3.55;;
69594;SDS011;56800;52.142;5.364;2023-07-16T01:50:27;10.63;;;3.00;;
69594;SDS011;56800;52.142;5.364;2023-07-16T01:52:54;13.85;;;3.20;;
69594;SDS011;56800;52.142;5.364;2023-07-16T01:55:21;10.27;;;3.45;;
69594;SDS011;56800;52.142;5.364;2023-07-16T01:57:48;8.90;;;3.40;;
69594;SDS011;56800;52.142;5.364;2023-07-16T02:00:15;14.23;;;3.53;;
69594;SDS011;56800;52.142;5.364;2023-07-16T02:02:41;12.95;;;3.80;;
69594;SDS011;56800;52.142;5.364;2023-07-16T02:05:08;13.40;;;3.80;;
69594;SDS011;56800;52.142;5.364;2023-07-16T02:07:35;12.00;;;3.70;;
69594;SDS011;56800;52.142;5.364;2023-07-16T02:10:02;13.50;;;3.60;;
69594;SDS011;56800;52.142;5.364;2023-07-16T02:12:29;11.80;;;3.80;;
69594;SDS011;56800;52.142;5.364;2023-07-16T02:14:56;11.98;;;3.97;;
69594;SDS011;56800;52.142;5.364;2023-07-16T02:17:23;12.02;;;3.65;;
69594;SDS011;56800;52.142;5.364;2023-07-16T02:19:50;13.90;;;3.90;;
69594;SDS011;56800;52.142;5.364;2023-07-16T02:22:17;13.50;;;3.67;;
69594;SDS011;56800;52.142;5.364;2023-07-16T02:24:43;10.50;;;4.20;;
69594;SDS011;56800;52.142;5.364;2023-07-16T02:27:10;11.95;;;3.80;;
69594;SDS011;56800;52.142;5.364;2023-07-16T02:29:37;12.25;;;3.40;;
69594;SDS011;56800;52.142;5.364;2023-07-16T02:32:04;15.38;;;4.60;;
69594;SDS011;56800;52.142;5.364;2023-07-16T02:34:30;12.40;;;4.13;;
69594;SDS011;56800;52.142;5.364;2023-07-16T02:36:57;12.55;;;3.95;;
69594;SDS011;56800;52.142;5.364;2023-07-16T02:39:24;12.20;;;4.05;;
69594;SDS011;56800;52.142;5.364;2023-07-16T02:41:51;9.20;;;3.55;;
69594;SDS011;56800;52.142;5.364;2023-07-16T02:44:17;15.10;;;4.43;;
69594;SDS011;56800;52.142;5.364;2023-07-16T02:46:44;14.03;;;3.37;;
69594;SDS011;56800;52.142;5.364;2023-07-16T02:49:11;14.23;;;4.22;;
69594;SDS011;56800;52.142;5.364;2023-07-16T02:51:38;13.77;;;4.28;;
69594;SDS011;56800;52.142;5.364;2023-07-16T02:54:05;15.50;;;3.80;;
69594;SDS011;56800;52.142;5.364;2023-07-16T02:56:31;10.55;;;4.30;;
69594;SDS011;56800;52.142;5.364;2023-07-16T02:58:58;10.17;;;4.10;;
69594;SDS011;56800;52.142;5.364;2023-07-16T03:01:25;11.23;;;3.95;;
69594;SDS011;56800;52.142;5.364;2023-07-16T03:03:52;10.93;;;3.67;;
69594;SDS011;56800;52.142;5.364;2023-07-16T03:06:18;12.55;;;3.88;;
69594;SDS011;56800;52.142;5.364;2023-07-16T03:08:48;17.05;;;4.05;;
69594;SDS011;56800;52.142;5.364;2023-07-16T03:11:14;13.10;;;4.03;;
69594;SDS011;56800;52.142;5.364;2023-07-16T03:13:41;8.73;;;3.47;;
69594;SDS011;56800;52.142;5.364;2023-07-16T03:16:08;13.13;;;3.95;;
69594;SDS011;56800;52.142;5.364;2023-07-16T03:18:35;10.98;;;4.00;;
69594;SDS011;56800;52.142;5.364;2023-07-16T03:21:02;10.43;;;4.07;;
69594;SDS011;56800;52.142;5.364;2023-07-16T03:23:29;11.77;;;3.70;;
69594;SDS011;56800;52.142;5.364;2023-07-16T03:25:56;13.75;;;3.92;;
69594;SDS011;56800;52.142;5.364;2023-07-16T03:28:22;11.45;;;3.50;;
69594;SDS011;56800;52.142;5.364;2023-07-16T03:30:50;14.88;;;4.28;;
69594;SDS011;56800;52.142;5.364;2023-07-16T03:33:17;8.25;;;2.90;;
69594;SDS011;56800;52.142;5.364;2023-07-16T03:35:44;8.37;;;3.43;;
69594;SDS011;56800;52.142;5.364;2023-07-16T03:38:12;12.18;;;3.42;;
69594;SDS011;56800;52.142;5.364;2023-07-16T03:40:41;10.75;;;3.63;;
69594;SDS011;56800;52.142;5.364;2023-07-16T03:43:11;11.52;;;3.60;;
69594;SDS011;56800;52.142;5.364;2023-07-16T03:45:38;14.88;;;3.72;;
69594;SDS011;56800;52.142;5.364;2023-07-16T03:48:05;9.77;;;3.57;;
69594;SDS011;56800;52.142;5.364;2023-07-16T03:50:32;10.43;;;3.78;;
69594;SDS011;56800;52.142;5.364;2023-07-16T03:53:00;12.82;;;3.65;;
69594;SDS011;56800;52.142;5.364;2023-07-16T03:55:27;13.13;;;3.60;;
69594;SDS011;56800;52.142;5.364;2023-07-16T03:57:54;16.05;;;3.55;;
69594;SDS011;56800;52.142;5.364;2023-07-16T04:00:20;11.17;;;3.30;;
69594;SDS011;56800;52.142;5.364;2023-07-16T04:02:47;14.02;;;3.58;;
69594;SDS011;56800;52.142;5.364;2023-07-16T04:05:14;15.43;;;3.92;;
69594;SDS011;56800;52.142;5.364;2023-07-16T04:07:41;13.77;;;3.40;;
69594;SDS011;56800;52.142;5.364;2023-07-16T04:10:08;13.75;;;3.97;;
69594;SDS011;56800;52.142;5.364;2023-07-16T04:12:35;13.90;;;4.03;;
69594;SDS011;56800;52.142;5.364;2023-07-16T04:15:06;10.20;;;3.47;;
69594;SDS011;56800;52.142;5.364;2023-07-16T04:17:33;9.85;;;3.30;;
69594;SDS011;56800;52.142;5.364;2023-07-16T04:20:00;10.63;;;3.85;;
69594;SDS011;56800;52.142;5.364;2023-07-16T04:22:27;13.73;;;3.97;;
69594;SDS011;56800;52.142;5.364;2023-07-16T04:24:54;13.93;;;4.00;;
69594;SDS011;56800;52.142;5.364;2023-07-16T04:27:20;15.10;;;4.32;;
69594;SDS011;56800;52.142;5.364;2023-07-16T04:29:47;13.32;;;4.30;;
69594;SDS011;56800;52.142;5.364;2023-07-16T04:32:14;15.35;;;4.22;;
69594;SDS011;56800;52.142;5.364;2023-07-16T04:34:40;10.52;;;4.30;;
69594;SDS011;56800;52.142;5.364;2023-07-16T04:37:07;15.93;;;4.57;;
69594;SDS011;56800;52.142;5.364;2023-07-16T04:39:34;12.07;;;4.40;;
69594;SDS011;56800;52.142;5.364;2023-07-16T04:42:01;10.90;;;4.60;;
69594;SDS011;56800;52.142;5.364;2023-07-16T04:44:27;11.70;;;4.95;;
69594;SDS011;56800;52.142;5.364;2023-07-16T04:46:54;14.10;;;4.78;;
69594;SDS011;56800;52.142;5.364;2023-07-16T04:49:21;9.77;;;4.40;;
69594;SDS011;56800;52.142;5.364;2023-07-16T04:51:48;16.45;;;5.25;;
69594;SDS011;56800;52.142;5.364;2023-07-16T04:54:14;10.63;;;4.20;;
69594;SDS011;56800;52.142;5.364;2023-07-16T04:56:41;13.15;;;4.68;;
69594;SDS011;56800;52.142;5.364;2023-07-16T04:59:08;11.70;;;4.22;;
69594;SDS011;56800;52.142;5.364;2023-07-16T05:01:35;13.93;;;4.50;;
69594;SDS011;56800;52.142;5.364;2023-07-16T05:04:02;8.55;;;4.30;;
69594;SDS011;56800;52.142;5.364;2023-07-16T05:06:29;16.00;;;5.05;;
69594;SDS011;56800;52.142;5.364;2023-07-16T05:08:56;12.25;;;4.45;;
69594;SDS011;56800;52.142;5.364;2023-07-16T05:11:22;10.15;;;4.25;;
69594;SDS011;56800;52.142;5.364;2023-07-16T05:13:49;13.77;;;4.30;;
69594;SDS011;56800;52.142;5.364;2023-07-16T05:16:16;9.52;;;4.55;;
69594;SDS011;56800;52.142;5.364;2023-07-16T05:18:43;13.73;;;4.20;;
69594;SDS011;56800;52.142;5.364;2023-07-16T05:21:10;11.07;;;4.63;;
69594;SDS011;56800;52.142;5.364;2023-07-16T05:23:36;13.95;;;4.93;;
69594;SDS011;56800;52.142;5.364;2023-07-16T05:26:04;14.07;;;4.63;;
69594;SDS011;56800;52.142;5.364;2023-07-16T05:28:30;10.20;;;4.70;;
69594;SDS011;56800;52.142;5.364;2023-07-16T05:31:01;9.48;;;4.65;;
69594;SDS011;56800;52.142;5.364;2023-07-16T05:33:28;10.40;;;4.45;;
69594;SDS011;56800;52.142;5.364;2023-07-16T05:35:55;11.50;;;4.95;;
69594;SDS011;56800;52.142;5.364;2023-07-16T05:38:21;14.37;;;4.50;;
69594;SDS011;56800;52.142;5.364;2023-07-16T05:40:48;10.23;;;4.80;;
69594;SDS011;56800;52.142;5.364;2023-07-16T05:43:15;14.48;;;5.00;;
69594;SDS011;56800;52.142;5.364;2023-07-16T05:45:42;11.15;;;4.63;;
69594;SDS011;56800;52.142;5.364;2023-07-16T05:48:09;13.23;;;5.00;;
69594;SDS011;56800;52.142;5.364;2023-07-16T05:50:36;13.17;;;4.53;;
69594;SDS011;56800;52.142;5.364;2023-07-16T05:53:03;14.48;;;5.25;;
69594;SDS011;56800;52.142;5.364;2023-07-16T05:55:30;16.10;;;4.70;;
69594;SDS011;56800;52.142;5.364;2023-07-16T05:57:57;16.30;;;5.18;;
69594;SDS011;56800;52.142;5.364;2023-07-16T06:00:23;13.07;;;4.88;;
69594;SDS011;56800;52.142;5.364;2023-07-16T06:02:50;13.90;;;5.07;;
69594;SDS011;56800;52.142;5.364;2023-07-16T06:05:17;10.43;;;4.63;;
69594;SDS011;56800;52.142;5.364;2023-07-16T06:07:44;12.50;;;5.00;;
69594;SDS011;56800;52.142;5.364;2023-07-16T06:10:10;17.10;;;4.80;;
69594;SDS011;56800;52.142;5.364;2023-07-16T06:12:37;15.65;;;5.28;;
69594;SDS011;56800;52.142;5.364;2023-07-16T06:15:04;14.37;;;4.97;;
69594;SDS011;56800;52.142;5.364;2023-07-16T06:17:31;15.88;;;5.20;;
69594;SDS011;56800;52.142;5.364;2023-07-16T06:19:58;16.30;;;4.95;;
69594;SDS011;56800;52.142;5.364;2023-07-16T06:22:25;10.68;;;5.00;;
69594;SDS011;56800;52.142;5.364;2023-07-16T06:24:51;18.02;;;5.05;;
69594;SDS011;56800;52.142;5.364;2023-07-16T06:27:18;17.17;;;5.03;;
69594;SDS011;56800;52.142;5.364;2023-07-16T06:29:45;15.38;;;5.50;;
69594;SDS011;56800;52.142;5.364;2023-07-16T06:32:12;11.70;;;4.65;;
69594;SDS011;56800;52.142;5.364;2023-07-16T06:34:38;17.25;;;5.38;;
69594;SDS011;56800;52.142;5.364;2023-07-16T06:37:05;11.68;;;5.00;;
69594;SDS011;56800;52.142;5.364;2023-07-16T06:39:32;16.30;;;5.20;;
69594;SDS011;56800;52.142;5.364;2023-07-16T06:41:59;12.77;;;5.25;;
69594;SDS011;56800;52.142;5.364;2023-07-16T06:44:26;14.13;;;4.95;;
69594;SDS011;56800;52.142;5.364;2023-07-16T06:46:52;12.05;;;4.68;;
69594;SDS011;56800;52.142;5.364;2023-07-16T06:49:21;15.80;;;4.90;;
69594;SDS011;56800;52.142;5.364;2023-07-16T06:51:48;12.90;;;5.33;;
69594;SDS011;56800;52.142;5.364;2023-07-16T06:54:15;14.20;;;5.47;;
69594;SDS011;56800;52.142;5.364;2023-07-16T06:56:42;11.40;;;5.15;;
69594;SDS011;56800;52.142;5.364;2023-07-16T06:59:08;15.70;;;5.38;;
69594;SDS011;56800;52.142;5.364;2023-07-16T07:01:35;14.20;;;5.32;;
69594;SDS011;56800;52.142;5.364;2023-07-16T07:04:02;13.17;;;5.03;;
69594;SDS011;56800;52.142;5.364;2023-07-16T07:06:29;11.93;;;5.28;;
69594;SDS011;56800;52.142;5.364;2023-07-16T07:08:55;10.75;;;5.45;;
69594;SDS011;56800;52.142;5.364;2023-07-16T07:11:22;14.88;;;5.90;;
69594;SDS011;56800;52.142;5.364;2023-07-16T07:13:49;10.88;;;5.35;;
69594;SDS011;56800;52.142;5.364;2023-07-16T07:16:17;11.27;;;4.73;;
69594;SDS011;56800;52.142;5.364;2023-07-16T07:18:45;11.32;;;5.40;;
69594;SDS011;56800;52.142;5.364;2023-07-16T07:21:11;13.93;;;5.00;;
69594;SDS011;56800;52.142;5.364;2023-07-16T07:23:38;17.67;;;5.53;;
69594;SDS011;56800;52.142;5.364;2023-07-16T07:26:05;16.05;;;5.10;;
69594;SDS011;56800;52.142;5.364;2023-07-16T07:28:32;12.40;;;5.00;;
69594;SDS011;56800;52.142;5.364;2023-07-16T07:30:59;13.13;;;5.00;;
69594;SDS011;56800;52.142;5.364;2023-07-16T07:33:27;12.40;;;5.30;;
69594;SDS011;56800;52.142;5.364;2023-07-16T07:35:53;9.98;;;4.88;;
69594;SDS011;56800;52.142;5.364;2023-07-16T07:38:21;15.23;;;4.75;;
69594;SDS011;56800;52.142;5.364;2023-07-16T07:40:48;14.73;;;5.20;;
69594;SDS011;56800;52.142;5.364;2023-07-16T07:43:15;16.00;;;5.32;;
69594;SDS011;56800;52.142;5.364;2023-07-16T07:45:41;14.95;;;5.82;;
69594;SDS011;56800;52.142;5.364;2023-07-16T07:48:08;11.70;;;5.72;;
69594;SDS011;56800;52.142;5.364;2023-07-16T07:50:35;11.32;;;5.32;;
69594;SDS011;56800;52.142;5.364;2023-07-16T07:53:02;15.40;;;5.50;;
69594;SDS011;56800;52.142;5.364;2023-07-16T07:55:28;12.93;;;5.20;;
69594;SDS011;56800;52.142;5.364;2023-07-16T07:57:55;16.55;;;5.40;;
69594;SDS011;56800;52.142;5.364;2023-07-16T08:00:22;12.73;;;5.63;;
69594;SDS011;56800;52.142;5.364;2023-07-16T08:02:49;14.32;;;6.05;;
69594;SDS011;56800;52.142;5.364;2023-07-16T08:05:16;12.17;;;5.57;;
69594;SDS011;56800;52.142;5.364;2023-07-16T08:07:43;12.20;;;5.50;;
69594;SDS011;56800;52.142;5.364;2023-07-16T08:10:09;12.55;;;5.57;;
69594;SDS011;56800;52.142;5.364;2023-07-16T08:12:36;12.48;;;5.28;;
69594;SDS011;56800;52.142;5.364;2023-07-16T08:15:04;9.90;;;5.10;;
69594;SDS011;56800;52.142;5.364;2023-07-16T08:17:33;17.23;;;5.53;;
69594;SDS011;56800;52.142;5.364;2023-07-16T08:20:00;18.45;;;5.93;;
69594;SDS011;56800;52.142;5.364;2023-07-16T08:22:27;13.60;;;5.43;;
69594;SDS011;56800;52.142;5.364;2023-07-16T08:24:54;13.05;;;5.60;;
69594;SDS011;56800;52.142;5.364;2023-07-16T08:27:20;10.52;;;5.63;;
69594;SDS011;56800;52.142;5.364;2023-07-16T08:29:47;16.47;;;5.43;;
69594;SDS011;56800;52.142;5.364;2023-07-16T08:32:14;14.50;;;5.50;;
69594;SDS011;56800;52.142;5.364;2023-07-16T08:34:41;15.00;;;5.50;;
69594;SDS011;56800;52.142;5.364;2023-07-16T08:37:08;14.13;;;5.50;;
69594;SDS011;56800;52.142;5.364;2023-07-16T08:39:34;18.05;;;5.90;;
69594;SDS011;56800;52.142;5.364;2023-07-16T08:42:01;14.10;;;6.30;;
69594;SDS011;56800;52.142;5.364;2023-07-16T08:44:29;17.73;;;5.65;;
69594;SDS011;56800;52.142;5.364;2023-07-16T08:46:56;15.85;;;6.03;;
69594;SDS011;56800;52.142;5.364;2023-07-16T08:49:23;14.32;;;5.88;;
69594;SDS011;56800;52.142;5.364;2023-07-16T08:51:51;12.70;;;5.32;;
69594;SDS011;56800;52.142;5.364;2023-07-16T08:54:20;9.57;;;5.13;;
69594;SDS011;56800;52.142;5.364;2023-07-16T08:56:48;16.75;;;5.13;;
69594;SDS011;56800;52.142;5.364;2023-07-16T08:59:17;16.05;;;6.35;;
69594;SDS011;56800;52.142;5.364;2023-07-16T09:01:46;11.07;;;5.57;;
69594;SDS011;56800;52.142;5.364;2023-07-16T09:04:14;16.10;;;5.85;;
69594;SDS011;56800;52.142;5.364;2023-07-16T09:06:42;11.50;;;5.63;;
69594;SDS011;56800;52.142;5.364;2023-07-16T09:09:22;13.15;;;5.70;;
69594;SDS011;56800;52.142;5.364;2023-07-16T09:11:49;12.68;;;5.93;;
69594;SDS011;56800;52.142;5.364;2023-07-16T09:14:17;12.82;;;5.82;;
69594;SDS011;56800;52.142;5.364;2023-07-16T09:16:51;13.07;;;5.55;;
69594;SDS011;56800;52.142;5.364;2023-07-16T09:19:19;12.60;;;5.70;;
69594;SDS011;56800;52.142;5.364;2023-07-16T09:21:49;10.88;;;5.30;;
69594;SDS011;56800;52.142;5.364;2023-07-16T09:24:17;11.02;;;5.47;;
69594;SDS011;56800;52.142;5.364;2023-07-16T09:26:47;11.88;;;5.57;;
69594;SDS011;56800;52.142;5.364;2023-07-16T09:29:18;12.82;;;5.57;;
69594;SDS011;56800;52.142;5.364;2023-07-16T09:31:55;15.23;;;5.93;;
69594;SDS011;56800;52.142;5.364;2023-07-16T09:34:27;15.23;;;5.47;;
69594;SDS011;56800;52.142;5.364;2023-07-16T09:36:54;11.50;;;5.15;;
69594;SDS011;56800;52.142;5.364;2023-07-16T09:39:22;13.43;;;5.68;;
69594;SDS011;56800;52.142;5.364;2023-07-16T09:41:50;11.55;;;5.43;;
69594;SDS011;56800;52.142;5.364;2023-07-16T09:44:18;9.93;;;4.97;;
69594;SDS011;56800;52.142;5.364;2023-07-16T09:46:45;13.75;;;6.00;;
69594;SDS011;56800;52.142;5.364;2023-07-16T09:49:14;13.27;;;5.38;;
69594;SDS011;56800;52.142;5.364;2023-07-16T09:51:42;13.88;;;5.30;;
69594;SDS011;56800;52.142;5.364;2023-07-16T09:54:12;9.55;;;5.00;;
69594;SDS011;56800;52.142;5.364;2023-07-16T09:56:44;16.93;;;5.50;;
69594;SDS011;56800;52.142;5.364;2023-07-16T09:59:14;15.18;;;5.65;;
69594;SDS011;56800;52.142;5.364;2023-07-16T10:01:43;15.32;;;5.07;;
69594;SDS011;56800;52.142;5.364;2023-07-16T10:04:11;10.63;;;4.90;;
69594;SDS011;56800;52.142;5.364;2023-07-16T10:06:50;12.57;;;5.78;;
69594;SDS011;56800;52.142;5.364;2023-07-16T10:09:33;11.83;;;5.60;;
69594;SDS011;56800;52.142;5.364;2023-07-16T10:14:44;17.63;;;6.20;;
69594;SDS011;56800;52.142;5.364;2023-07-16T10:17:22;16.08;;;5.82;;
69594;SDS011;56800;52.142;5.364;2023-07-16T10:19:57;13.73;;;5.65;;
69594;SDS011;56800;52.142;5.364;2023-07-16T10:22:43;11.53;;;4.90;;
69594;SDS011;56800;52.142;5.364;2023-07-16T10:27:46;12.32;;;5.68;;
69594;SDS011;56800;52.142;5.364;2023-07-16T10:30:14;11.95;;;5.88;;
69594;SDS011;56800;52.142;5.364;2023-07-16T10:32:41;12.60;;;4.95;;
69594;SDS011;56800;52.142;5.364;2023-07-16T10:35:09;17.80;;;5.37;;
69594;SDS011;56800;52.142;5.364;2023-07-16T10:37:36;11.48;;;5.38;;
69594;SDS011;56800;52.142;5.364;2023-07-16T10:40:03;11.65;;;5.30;;
69594;SDS011;56800;52.142;5.364;2023-07-16T10:42:31;14.82;;;5.10;;
69594;SDS011;56800;52.142;5.364;2023-07-16T10:44:59;16.95;;;5.28;;
69594;SDS011;56800;52.142;5.364;2023-07-16T10:47:31;12.73;;;4.93;;
69594;SDS011;56800;52.142;5.364;2023-07-16T10:49:59;12.85;;;4.40;;
69594;SDS011;56800;52.142;5.364;2023-07-16T10:52:26;11.90;;;5.53;;
69594;SDS011;56800;52.142;5.364;2023-07-16T10:54:53;9.82;;;4.95;;
69594;SDS011;56800;52.142;5.364;2023-07-16T10:57:24;12.73;;;5.38;;
69594;SDS011;56800;52.142;5.364;2023-07-16T10:59:52;13.43;;;5.20;;
69594;SDS011;56800;52.142;5.364;2023-07-16T11:02:20;13.73;;;4.97;;
69594;SDS011;56800;52.142;5.364;2023-07-16T11:04:48;28.33;;;5.50;;
69594;SDS011;56800;52.142;5.364;2023-07-16T11:07:19;20.50;;;5.10;;
69594;SDS011;56800;52.142;5.364;2023-07-16T11:09:48;24.33;;;5.00;;
69594;SDS011;56800;52.142;5.364;2023-07-16T11:12:20;16.60;;;4.43;;
69594;SDS011;56800;52.142;5.364;2023-07-16T11:14:51;13.63;;;4.13;;
69594;SDS011;56800;52.142;5.364;2023-07-16T11:17:20;7.10;;;3.60;;
69594;SDS011;56800;52.142;5.364;2023-07-16T11:19:49;11.77;;;4.20;;
69594;SDS011;56800;52.142;5.364;2023-07-16T11:22:17;7.53;;;3.83;;
69594;SDS011;56800;52.142;5.364;2023-07-16T11:24:49;9.77;;;4.10;;
69594;SDS011;56800;52.142;5.364;2023-07-16T11:27:25;7.63;;;3.70;;
69594;SDS011;56800;52.142;5.364;2023-07-16T11:29:57;9.68;;;4.00;;
69594;SDS011;56800;52.142;5.364;2023-07-16T11:32:35;8.20;;;4.15;;
69594;SDS011;56800;52.142;5.364;2023-07-16T11:35:04;9.57;;;4.00;;
69594;SDS011;56800;52.142;5.364;2023-07-16T11:37:33;7.87;;;3.97;;
69594;SDS011;56800;52.142;5.364;2023-07-16T11:40:04;8.98;;;4.07;;
69594;SDS011;56800;52.142;5.364;2023-07-16T11:42:36;11.20;;;4.53;;
69594;SDS011;56800;52.142;5.364;2023-07-16T11:45:05;12.98;;;4.35;;
69594;SDS011;56800;52.142;5.364;2023-07-16T11:47:44;9.55;;;4.47;;
69594;SDS011;56800;52.142;5.364;2023-07-16T11:50:12;9.97;;;3.87;;
69594;SDS011;56800;52.142;5.364;2023-07-16T11:52:39;7.68;;;3.38;;
69594;SDS011;56800;52.142;5.364;2023-07-16T11:55:06;8.20;;;3.45;;
69594;SDS011;56800;52.142;5.364;2023-07-16T11:57:34;7.03;;;3.55;;
69594;SDS011;56800;52.142;5.364;2023-07-16T12:00:02;7.72;;;3.30;;
69594;SDS011;56800;52.142;5.364;2023-07-16T12:02:29;5.20;;;2.43;;
69594;SDS011;56800;52.142;5.364;2023-07-16T12:04:56;7.00;;;2.95;;
69594;SDS011;56800;52.142;5.364;2023-07-16T12:07:33;6.03;;;2.72;;
69594;SDS011;56800;52.142;5.364;2023-07-16T12:10:05;7.55;;;2.72;;
69594;SDS011;56800;52.142;5.364;2023-07-16T12:12:33;9.70;;;3.13;;
69594;SDS011;56800;52.142;5.364;2023-07-16T12:15:05;6.33;;;2.30;;
69594;SDS011;56800;52.142;5.364;2023-07-16T12:17:33;5.28;;;2.50;;
69594;SDS011;56800;52.142;5.364;2023-07-16T12:20:00;6.15;;;2.65;;
69594;SDS011;56800;52.142;5.364;2023-07-16T12:22:30;4.55;;;2.38;;
69594;SDS011;56800;52.142;5.364;2023-07-16T12:24:58;7.43;;;2.72;;
69594;SDS011;56800;52.142;5.364;2023-07-16T12:27:24;7.57;;;2.87;;
69594;SDS011;56800;52.142;5.364;2023-07-16T12:29:51;7.18;;;2.67;;
69594;SDS011;56800;52.142;5.364;2023-07-16T12:32:18;7.28;;;2.70;;
69594;SDS011;56800;52.142;5.364;2023-07-16T12:34:46;10.15;;;2.50;;
69594;SDS011;56800;52.142;5.364;2023-07-16T12:37:13;7.15;;;2.55;;
69594;SDS011;56800;52.142;5.364;2023-07-16T12:39:40;5.60;;;2.87;;
69594;SDS011;56800;52.142;5.364;2023-07-16T12:42:07;6.57;;;2.67;;
69594;SDS011;56800;52.142;5.364;2023-07-16T12:44:34;8.60;;;2.70;;
69594;SDS011;56800;52.142;5.364;2023-07-16T12:47:01;9.43;;;3.20;;
69594;SDS011;56800;52.142;5.364;2023-07-16T12:49:27;5.93;;;2.83;;
69594;SDS011;56800;52.142;5.364;2023-07-16T12:51:54;7.57;;;2.70;;
69594;SDS011;56800;52.142;5.364;2023-07-16T12:54:21;9.35;;;2.70;;
69594;SDS011;56800;52.142;5.364;2023-07-16T12:56:47;6.78;;;2.83;;
69594;SDS011;56800;52.142;5.364;2023-07-16T12:59:14;12.65;;;3.40;;
69594;SDS011;56800;52.142;5.364;2023-07-16T13:01:41;8.20;;;2.33;;
69594;SDS011;56800;52.142;5.364;2023-07-16T13:04:08;7.13;;;2.57;;
69594;SDS011;56800;52.142;5.364;2023-07-16T13:06:34;11.40;;;2.40;;
69594;SDS011;56800;52.142;5.364;2023-07-16T13:09:01;8.88;;;2.97;;
69594;SDS011;56800;52.142;5.364;2023-07-16T13:11:31;9.38;;;3.10;;
69594;SDS011;56800;52.142;5.364;2023-07-16T13:13:58;6.75;;;2.70;;
69594;SDS011;56800;52.142;5.364;2023-07-16T13:16:24;7.50;;;2.47;;
69594;SDS011;56800;52.142;5.364;2023-07-16T13:18:52;9.18;;;2.55;;
69594;SDS011;56800;52.142;5.364;2023-07-16T13:21:19;7.97;;;2.80;;
69594;SDS011;56800;52.142;5.364;2023-07-16T13:23:46;4.70;;;2.20;;
69594;SDS011;56800;52.142;5.364;2023-07-16T13:26:13;7.63;;;2.55;;
69594;SDS011;56800;52.142;5.364;2023-07-16T13:28:40;8.47;;;2.17;;
69594;SDS011;56800;52.142;5.364;2023-07-16T13:31:07;8.02;;;2.00;;
69594;SDS011;56800;52.142;5.364;2023-07-16T13:33:34;6.38;;;2.35;;
69594;SDS011;56800;52.142;5.364;2023-07-16T13:36:02;7.38;;;2.38;;
69594;SDS011;56800;52.142;5.364;2023-07-16T13:38:30;10.70;;;2.13;;
69594;SDS011;56800;52.142;5.364;2023-07-16T13:40:57;7.57;;;2.50;;
69594;SDS011;56800;52.142;5.364;2023-07-16T13:43:24;9.15;;;2.58;;
69594;SDS011;56800;52.142;5.364;2023-07-16T13:45:51;6.35;;;2.38;;
69594;SDS011;56800;52.142;5.364;2023-07-16T13:48:17;6.55;;;2.75;;
69594;SDS011;56800;52.142;5.364;2023-07-16T13:50:44;11.02;;;2.50;;
69594;SDS011;56800;52.142;5.364;2023-07-16T13:53:11;6.83;;;2.33;;
69594;SDS011;56800;52.142;5.364;2023-07-16T13:55:38;9.43;;;2.75;;
69594;SDS011;56800;52.142;5.364;2023-07-16T13:58:05;8.85;;;2.63;;
69594;SDS011;56800;52.142;5.364;2023-07-16T14:00:32;7.80;;;2.22;;
69594;SDS011;56800;52.142;5.364;2023-07-16T14:02:58;7.40;;;2.40;;
69594;SDS011;56800;52.142;5.364;2023-07-16T14:05:25;7.57;;;2.73;;
69594;SDS011;56800;52.142;5.364;2023-07-16T14:07:53;7.95;;;2.15;;
69594;SDS011;56800;52.142;5.364;2023-07-16T14:10:20;7.90;;;1.90;;
69594;SDS011;56800;52.142;5.364;2023-07-16T14:12:47;6.88;;;2.40;;
69594;SDS011;56800;52.142;5.364;2023-07-16T14:15:13;7.15;;;2.35;;
69594;SDS011;56800;52.142;5.364;2023-07-16T14:17:43;5.47;;;2.30;;
69594;SDS011;56800;52.142;5.364;2023-07-16T14:20:10;6.53;;;2.63;;
69594;SDS011;56800;52.142;5.364;2023-07-16T14:22:36;11.18;;;3.00;;
69594;SDS011;56800;52.142;5.364;2023-07-16T14:25:04;7.10;;;2.70;;
69594;SDS011;56800;52.142;5.364;2023-07-16T14:27:31;7.03;;;2.30;;
69594;SDS011;56800;52.142;5.364;2023-07-16T14:29:59;7.53;;;2.50;;
69594;SDS011;56800;52.142;5.364;2023-07-16T14:32:32;7.85;;;2.55;;
69594;SDS011;56800;52.142;5.364;2023-07-16T14:34:59;7.18;;;2.55;;
69594;SDS011;56800;52.142;5.364;2023-07-16T14:37:27;10.07;;;2.55;;
69594;SDS011;56800;52.142;5.364;2023-07-16T14:39:53;8.48;;;2.70;;
69594;SDS011;56800;52.142;5.364;2023-07-16T14:42:20;7.37;;;2.90;;
69594;SDS011;56800;52.142;5.364;2023-07-16T14:44:47;10.15;;;2.58;;
69594;SDS011;56800;52.142;5.364;2023-07-16T14:47:13;5.78;;;2.78;;
69594;SDS011;56800;52.142;5.364;2023-07-16T14:49:41;10.02;;;2.38;;
69594;SDS011;56800;52.142;5.364;2023-07-16T14:52:08;8.00;;;2.47;;